Time;durP1;ratioP1;P1;durP2;ratioP2;P2;SDS_P1;SDS_P2;PMS_P1;PMS_P2;Temp;Humidity;BMP_temperature;BMP_pressure;BME280_temperature;BME280_humidity;BME280_pressure;Samples;Min_cycle;Max_cycle;Signal;HPM_P1;HPM_P2
2021/03/01 00:02:09;;;;;;;;;;;;;;;;;;5012140;28;810;-57
2021/03/01 00:04:34;;;;;;;;;;;;;;;;;;5014329;28;768;-57
2021/03/01 00:07:00;;;;;;;;;;;;;;;;;;5015336;28;824;-59
2021/03/01 00:09:26;;;;;;;;;;;;;;;;;;5015221;28;1273;-57
2021/03/01 00:11:51;;;;;;;;;;;;;;;;;;5015296;28;825;-57
2021/03/01 00:14:17;;;;;;;;;;;;;;;;;;5015529;28;890;-56
2021/03/01 00:16:43;;;;;;;;;;;;;;;;;;5015029;28;1951;-57
2021/03/01 00:19:08;;;;;;;;;;;;;;;;;;5015026;28;1270;-57
2021/03/01 00:21:34;;;;;;;;;;;;;;;;;;5015046;28;794;-57
2021/03/01 00:24:00;;;;;;;;;;;;;;;;;;5016773;28;897;-55
2021/03/01 00:26:27;;;;;;;;;;;;;;;;;;5015010;28;890;-58
2021/03/01 00:28:52;;;;;;;;;;;;;;;;;;5014750;28;1266;-55
2021/03/01 00:31:18;;;;;;;;;;;;;;;;;;5015081;28;814;-54
2021/03/01 00:33:44;;;;;;;;;;;;;;;;;;5014961;28;834;-56
2021/03/01 00:36:09;;;;;;;;;;;;;;;;;;5014958;28;1958;-54
2021/03/01 00:38:35;;;;;;;;;;;;;;;;;;5015070;28;1266;-51
2021/03/01 00:41:01;;;;;;;;;;;;;;;;;;5015086;28;882;-55
2021/03/01 00:43:30;;;;;;;;;;;;;;;;;;5014879;28;963;-56
2021/03/01 00:45:56;;;;;;;;;;;;;;;;;;5015114;28;1025;-57
2021/03/01 00:48:22;;;;;;;;;;;;;;;;;;5014680;28;1246;-54
2021/03/01 00:50:48;;;;;;;;;;;;;;;;;;5014704;28;981;-57
2021/03/01 00:53:23;;;;;;;;;;;;;;;;;;5013404;28;767;-54
2021/03/01 00:55:49;;;;;;;;;;;;;;;;;;5015003;28;1898;-54
2021/03/01 00:58:15;;;;;;;;;;;;;;;;;;5016002;28;1247;-55
2021/03/01 01:00:41;;;;;;;;;;;;;;;;;;5014500;28;830;-57
2021/03/01 01:03:07;;;;;;;;;;;;;;;;;;5014660;28;793;-55
2021/03/01 01:05:32;;;;;;;;;;;;;;;;;;5014348;28;758;-56
2021/03/01 01:07:58;;;;;;;;;;;;;;;;;;5014084;28;1330;-53
2021/03/01 01:10:24;;;;;;;;;;;;;;;;;;5014684;28;814;-54
2021/03/01 01:12:50;;;;;;;;;;;;;;;;;;5014420;28;866;-57
2021/03/01 01:15:15;;;;;;;;;;;;;;;;;;5013557;28;1898;-57
2021/03/01 01:17:41;;;;;;;;;;;;;;;;;;5014055;28;817;-57
2021/03/01 01:20:09;;;;;;;;;;;;;;;;;;5014116;28;773;-57
2021/03/01 01:22:34;;;;;;;;;;;;;;;;;;5014784;28;954;-57
2021/03/01 01:25:00;;;;;;;;;;;;;;;;;;5014503;28;817;-57
2021/03/01 01:27:26;;;;;;;;;;;;;;;;;;5014648;28;1078;-57
2021/03/01 01:29:51;;;;;;;;;;;;;;;;;;5013932;28;1270;-58
2021/03/01 01:32:17;;;;;;;;;;;;;;;;;;5014018;28;856;-54
2021/03/01 01:34:43;;;;;;;;;;;;;;;;;;5014208;28;706;-50
2021/03/01 01:37:09;;;;;;;;;;;;;;;;;;5014090;28;1957;-52
2021/03/01 01:39:35;;;;;;;;;;;;;;;;;;5014382;28;1357;-52
2021/03/01 01:42:01;;;;;;;;;;;;;;;;;;5013951;28;814;-52
2021/03/01 01:44:26;;;;;;;;;;;;;;;;;;5014030;28;1060;-52
2021/03/01 01:46:52;;;;;;;;;;;;;;;;;;5013761;28;889;-55
2021/03/01 01:49:18;;;;;;;;;;;;;;;;;;5013507;28;1341;-50
2021/03/01 01:51:43;;;;;;;;;;;;;;;;;;5014295;28;974;-52
2021/03/01 01:54:10;;;;;;;;;;;;;;;;;;5013680;28;836;-52
2021/03/01 01:56:36;;;;;;;;;;;;;;;;;;5015381;28;1898;-50
2021/03/01 01:59:02;;;;;;;;;;;;;;;;;;5013593;28;1278;-51
2021/03/01 02:01:28;;;;;;;;;;;;;;;;;;5014148;28;833;-53
2021/03/01 02:04:00;;;;;;;;;;;;;;;;;;5013548;28;806;-50
2021/03/01 02:06:52;;;;;;;;;;;;;;;;;;5014026;28;646;-55
2021/03/01 02:09:19;;;;;;;;;;;;;;;;;;5013233;28;1357;-52
2021/03/01 02:11:51;;;;;;;;;;;;;;;;;;5013780;28;793;-56
2021/03/01 02:14:22;;;;;;;;;;;;;;;;;;5013540;28;723;-56
2021/03/01 02:16:48;;;;;;;;;;;;;;;;;;5013233;28;1894;-58
2021/03/01 02:19:14;;;;;;;;;;;;;;;;;;5013041;28;1333;-57
2021/03/01 02:21:44;;;;;;;;;;;;;;;;;;5013283;28;966;-57
2021/03/01 02:24:11;;;;;;;;;;;;;;;;;;5013600;28;793;-57
2021/03/01 02:26:38;;;;;;;;;;;;;;;;;;5013150;28;805;-57
2021/03/01 02:29:07;;;;;;;;;;;;;;;;;;5012893;28;1309;-57
2021/03/01 02:31:34;;;;;;;;;;;;;;;;;;5013345;28;814;-57
2021/03/01 02:34:01;;;;;;;;;;;;;;;;;;5013788;28;1115;-56
2021/03/01 02:36:31;;;;;;;;;;;;;;;;;;5013019;28;1969;-56
2021/03/01 02:38:58;;;;;;;;;;;;;;;;;;5015008;28;1733;-54
2021/03/01 02:41:24;;;;;;;;;;;;;;;;;;5013170;28;900;-54
2021/03/01 02:43:51;;;;;;;;;;;;;;;;;;5013194;28;813;-54
2021/03/01 02:46:17;;;;;;;;;;;;;;;;;;5013325;28;937;-54
2021/03/01 02:48:44;;;;;;;;;;;;;;;;;;5012844;28;1254;-50
2021/03/01 02:51:10;;;;;;;;;;;;;;;;;;5012795;28;810;-56
2021/03/01 02:53:37;;;;;;;;;;;;;;;;;;5012717;28;802;-54
2021/03/01 02:56:03;;;;;;;;;;;;;;;;;;5013305;28;1898;-56
2021/03/01 02:58:30;;;;;;;;;;;;;;;;;;5012472;28;1368;-57
2021/03/01 03:00:58;;;;;;;;;;;;;;;;;;5012997;28;969;-52
2021/03/01 03:03:25;;;;;;;;;;;;;;;;;;5012628;28;903;-56
2021/03/01 03:05:51;;;;;;;;;;;;;;;;;;5014258;28;937;-52
2021/03/01 03:08:18;;;;;;;;;;;;;;;;;;5012488;28;1348;-54
2021/03/01 03:10:46;;;;;;;;;;;;;;;;;;5012491;28;1043;-58
2021/03/01 03:13:12;;;;;;;;;;;;;;;;;;5012451;28;805;-56
2021/03/01 03:15:39;;;;;;;;;;;;;;;;;;5012665;28;886;-57
2021/03/01 03:18:10;;;;;;;;;;;;;;;;;;5012307;28;1286;-57
2021/03/01 03:20:36;;;;;;;;;;;;;;;;;;5012403;28;879;-55
2021/03/01 03:23:02;;;;;;;;;;;;;;;;;;5012257;28;754;-57
2021/03/01 03:25:28;;;;;;;;;;;;;;;;;;5012842;28;1010;-57
2021/03/01 03:27:53;;;;;;;;;;;;;;;;;;5012032;28;1397;-57
2021/03/01 03:30:24;;;;;;;;;;;;;;;;;;5012070;28;945;-57
2021/03/01 03:32:50;;;;;;;;;;;;;;;;;;5012416;28;917;-57
2021/03/01 03:35:16;;;;;;;;;;;;;;;;;;5012369;28;895;-55
2021/03/01 03:37:45;;;;;;;;;;;;;;;;;;5011543;28;1963;-57
2021/03/01 03:40:12;;;;;;;;;;;;;;;;;;5012041;28;1193;-54
2021/03/01 03:42:38;;;;;;;;;;;;;;;;;;5012432;28;810;-56
2021/03/01 03:45:05;;;;;;;;;;;;;;;;;;5012009;28;953;-54
2021/03/01 03:47:32;;;;;;;;;;;;;;;;;;5011840;28;878;-55
2021/03/01 03:49:59;;;;;;;;;;;;;;;;;;5010877;28;1325;-55
2021/03/01 03:52:25;;;;;;;;;;;;;;;;;;5011978;28;898;-54
2021/03/01 03:54:52;;;;;;;;;;;;;;;;;;5012537;28;830;-52
2021/03/01 03:57:28;;;;;;;;;;;;;;;;;;5012178;28;1902;-56
2021/03/01 03:59:54;;;;;;;;;;;;;;;;;;5011928;28;1354;-56
2021/03/01 04:02:22;;;;;;;;;;;;;;;;;;5011954;28;987;-55
2021/03/01 04:04:48;;;;;;;;;;;;;;;;;;5012071;28;801;-56
2021/03/01 04:07:15;;;;;;;;;;;;;;;;;;5011994;28;826;-51
2021/03/01 04:09:42;;;;;;;;;;;;;;;;;;5011717;28;1333;-54
2021/03/01 04:12:10;;;;;;;;;;;;;;;;;;5013187;28;961;-54
2021/03/01 04:14:36;;;;;;;;;;;;;;;;;;5017239;28;974;-52
2021/03/01 04:17:04;;;;;;;;;;;;;;;;;;5011409;28;1894;-51
2021/03/01 04:19:31;;;;;;;;;;;;;;;;;;5013145;28;1400;-53
2021/03/01 04:21:58;;;;;;;;;;;;;;;;;;5012054;28;754;-53
2021/03/01 04:24:24;;;;;;;;;;;;;;;;;;5011547;28;810;-52
2021/03/01 04:26:50;;;;;;;;;;;;;;;;;;5011660;28;802;-52
2021/03/01 04:29:17;;;;;;;;;;;;;;;;;;5011159;28;1340;-53
2021/03/01 04:31:44;;;;;;;;;;;;;;;;;;5011756;28;550;-51
2021/03/01 04:34:11;;;;;;;;;;;;;;;;;;5011895;28;958;-55
2021/03/01 04:36:37;;;;;;;;;;;;;;;;;;5011682;28;1898;-57
2021/03/01 04:39:04;;;;;;;;;;;;;;;;;;5011368;28;1392;-56
2021/03/01 04:41:31;;;;;;;;;;;;;;;;;;5011499;28;671;-54
2021/03/01 04:43:57;;;;;;;;;;;;;;;;;;5011515;28;794;-58
2021/03/01 04:46:23;;;;;;;;;;;;;;;;;;5011451;28;1139;-53
2021/03/01 04:48:49;;;;;;;;;;;;;;;;;;5012641;28;1247;-57
2021/03/01 04:51:15;;;;;;;;;;;;;;;;;;5014711;28;798;-57
2021/03/01 04:53:41;;;;;;;;;;;;;;;;;;5014586;28;979;-55
2021/03/01 04:56:07;;;;;;;;;;;;;;;;;;5014721;28;1894;-55
2021/03/01 04:58:35;;;;;;;;;;;;;;;;;;5014414;28;1266;-53
2021/03/01 05:01:01;;;;;;;;;;;;;;;;;;5015137;28;814;-57
2021/03/01 05:03:28;;;;;;;;;;;;;;;;;;5014875;28;926;-57
2021/03/01 05:05:56;;;;;;;;;;;;;;;;;;5014512;28;925;-56
2021/03/01 05:08:24;;;;;;;;;;;;;;;;;;5014420;28;1349;-57
2021/03/01 05:10:50;;;;;;;;;;;;;;;;;;5014615;28;972;-57
2021/03/01 05:13:16;;;;;;;;;;;;;;;;;;5014735;28;1125;-57
2021/03/01 05:15:42;;;;;;;;;;;;;;;;;;5014718;28;807;-56
2021/03/01 05:18:07;;;;;;;;;;;;;;;;;;5014241;28;1894;-57
2021/03/01 05:20:33;;;;;;;;;;;;;;;;;;5014189;28;943;-57
2021/03/01 05:22:59;;;;;;;;;;;;;;;;;;5014464;28;804;-55
2021/03/01 05:25:24;;;;;;;;;;;;;;;;;;5014135;28;964;-57
2021/03/01 05:27:50;;;;;;;;;;;;;;;;;;5013933;28;1294;-57
2021/03/01 05:30:16;;;;;;;;;;;;;;;;;;5013769;28;979;-57
2021/03/01 05:32:42;;;;;;;;;;;;;;;;;;5013941;28;884;-57
2021/03/01 05:35:08;;;;;;;;;;;;;;;;;;5013951;28;794;-57
2021/03/01 05:37:34;;;;;;;;;;;;;;;;;;5013666;28;1951;-57
2021/03/01 05:40:01;;;;;;;;;;;;;;;;;;5014217;28;1270;-51
2021/03/01 05:42:27;;;;;;;;;;;;;;;;;;5015204;28;1086;-53
2021/03/01 05:44:53;;;;;;;;;;;;;;;;;;5013804;28;839;-56
2021/03/01 05:47:20;;;;;;;;;;;;;;;;;;5013698;28;840;-55
2021/03/01 05:49:46;;;;;;;;;;;;;;;;;;5013646;28;1243;-54
2021/03/01 05:52:15;;;;;;;;;;;;;;;;;;5014019;28;885;-53
2021/03/01 05:54:41;;;;;;;;;;;;;;;;;;5013713;28;806;-53
2021/03/01 05:57:07;;;;;;;;;;;;;;;;;;5013354;28;1894;-53
2021/03/01 05:59:34;;;;;;;;;;;;;;;;;;5015622;28;1263;-51
2021/03/01 06:01:59;;;;;;;;;;;;;;;;;;5013621;28;860;-57
2021/03/01 06:04:26;;;;;;;;;;;;;;;;;;5013619;28;896;-52
2021/03/01 06:06:51;;;;;;;;;;;;;;;;;;5013786;28;849;-54
2021/03/01 06:09:17;;;;;;;;;;;;;;;;;;5013276;28;1333;-50
2021/03/01 06:11:46;;;;;;;;;;;;;;;;;;5013646;28;931;-56
2021/03/01 06:14:11;;;;;;;;;;;;;;;;;;5013576;28;870;-52
2021/03/01 06:16:57;;;;;;;;;;;;;;;;;;5013803;28;1867;-55
2021/03/01 06:19:41;;;;;;;;;;;;;;;;;;5013133;28;1732;-56
2021/03/01 06:22:07;;;;;;;;;;;;;;;;;;5013506;28;866;-57
2021/03/01 06:24:33;;;;;;;;;;;;;;;;;;5013728;28;798;-56
2021/03/01 06:26:58;;;;;;;;;;;;;;;;;;5013777;28;1207;-53
2021/03/01 06:29:24;;;;;;;;;;;;;;;;;;5012881;28;1254;-56
2021/03/01 06:31:49;;;;;;;;;;;;;;;;;;5013044;28;1300;-57
2021/03/01 06:34:31;;;;;;;;;;;;;;;;;;5013093;28;841;-57
2021/03/01 06:37:01;;;;;;;;;;;;;;;;;;5014655;28;1961;-57
2021/03/01 06:39:35;;;;;;;;;;;;;;;;;;5013178;28;1251;-57
2021/03/01 06:42:16;;;;;;;;;;;;;;;;;;5013339;28;886;-53
2021/03/01 06:44:43;;;;;;;;;;;;;;;;;;5013125;28;1065;-51
2021/03/01 06:47:08;;;;;;;;;;;;;;;;;;5013181;28;968;-51
2021/03/01 06:49:35;;;;;;;;;;;;;;;;;;5012771;28;1290;-51
2021/03/01 06:52:01;;;;;;;;;;;;;;;;;;5013615;28;892;-50
2021/03/01 06:54:27;;;;;;;;;;;;;;;;;;5013015;28;786;-50
2021/03/01 06:56:52;;;;;;;;;;;;;;;;;;5014416;28;1910;-53
2021/03/01 06:59:19;;;;;;;;;;;;;;;;;;5011369;28;1357;-51
2021/03/01 07:01:46;;;;;;;;;;;;;;;;;;5012941;28;890;-57
2021/03/01 07:04:25;;;;;;;;;;;;;;;;;;5015315;28;1041;-57
2021/03/01 07:06:52;;;;;;;;;;;;;;;;;;5012835;28;787;-55
2021/03/01 07:09:19;;;;;;;;;;;;;;;;;;5013886;28;1270;-57
2021/03/01 07:11:45;;;;;;;;;;;;;;;;;;5013148;28;995;-55
2021/03/01 07:14:12;;;;;;;;;;;;;;;;;;5012418;28;819;-58
2021/03/01 07:16:39;;;;;;;;;;;;;;;;;;5014506;28;1953;-56
2021/03/01 07:19:06;;;;;;;;;;;;;;;;;;5012306;28;1352;-58
2021/03/01 07:21:32;;;;;;;;;;;;;;;;;;5012556;28;855;-59
2021/03/01 07:23:58;;;;;;;;;;;;;;;;;;5012300;28;884;-59
2021/03/01 07:26:27;;;;;;;;;;;;;;;;;;5014038;28;879;-57
2021/03/01 07:28:54;;;;;;;;;;;;;;;;;;5012017;28;1258;-58
2021/03/01 07:31:21;;;;;;;;;;;;;;;;;;5012268;28;937;-58
2021/03/01 07:33:47;;;;;;;;;;;;;;;;;;5012060;28;788;-58
2021/03/01 07:36:14;;;;;;;;;;;;;;;;;;5011892;28;786;-58
2021/03/01 07:38:40;;;;;;;;;;;;;;;;;;5013176;28;1948;-58
2021/03/01 07:41:05;;;;;;;;;;;;;;;;;;5012246;28;836;-60
2021/03/01 07:43:34;;;;;;;;;;;;;;;;;;5011895;28;786;-58
2021/03/01 07:46:00;;;;;;;;;;;;;;;;;;5012110;28;901;-54
2021/03/01 07:48:42;;;;;;;;;;;;;;;;;;5012065;28;1341;-58
2021/03/01 07:51:09;;;;;;;;;;;;;;;;;;5012183;28;801;-58
2021/03/01 07:53:51;;;;;;;;;;;;;;;;;;5012129;28;861;-58
2021/03/01 07:56:22;;;;;;;;;;;;;;;;;;5012208;28;757;-57
2021/03/01 07:58:54;;;;;;;;;;;;;;;;;;5010547;28;1898;-58
2021/03/01 08:01:20;;;;;;;;;;;;;;;;;;5012060;28;884;-56
2021/03/01 08:03:49;;;;;;;;;;;;;;;;;;5012209;28;837;-59
2021/03/01 08:06:14;;;;;;;;;;;;;;;;;;5011530;28;924;-58
2021/03/01 08:08:41;;;;;;;;;;;;;;;;;;5011890;28;1325;-59
2021/03/01 08:11:06;;;;;;;;;;;;;;;;;;5013243;28;1073;-58
2021/03/01 08:13:32;;;;;;;;;;;;;;;;;;5013321;28;798;-59
2021/03/01 08:16:16;;;;;;;;;;;;;;;;;;5011899;28;826;-59
2021/03/01 08:18:57;;;;;;;;;;;;;;;;;;5011596;28;1894;-57
2021/03/01 08:21:24;;;;;;;;;;;;;;;;;;5011761;28;887;-59
2021/03/01 08:23:50;;;;;;;;;;;;;;;;;;5014377;28;987;-59
2021/03/01 08:26:32;;;;;;;;;;;;;;;;;;5017488;28;882;-58
2021/03/01 08:29:02;;;;;;;;;;;;;;;;;;5015050;28;1266;-59
2021/03/01 08:31:30;;;;;;;;;;;;;;;;;;5015565;28;951;-59
2021/03/01 08:34:14;;;;;;;;;;;;;;;;;;5015168;28;808;-59
2021/03/01 08:36:44;;;;;;;;;;;;;;;;;;5015332;28;794;-60
2021/03/01 08:39:09;;;;;;;;;;;;;;;;;;5016586;28;1988;-59
2021/03/01 08:41:35;;;;;;;;;;;;;;;;;;5014897;28;973;-61
2021/03/01 08:44:03;;;;;;;;;;;;;;;;;;5014991;28;802;-58
2021/03/01 08:46:28;;;;;;;;;;;;;;;;;;5016455;28;928;-59
2021/03/01 08:48:55;;;;;;;;;;;;;;;;;;5014931;28;1278;-58
2021/03/01 08:51:21;;;;;;;;;;;;;;;;;;5016347;28;913;-59
2021/03/01 08:53:51;;;;;;;;;;;;;;;;;;5014735;28;796;-59
2021/03/01 08:56:24;;;;;;;;;;;;;;;;;;5014739;28;871;-59
2021/03/01 08:58:49;;;;;;;;;;;;;;;;;;5014743;28;1959;-60
2021/03/01 09:01:15;;;;;;;;;;;;;;;;;;5014635;28;798;-60
2021/03/01 09:03:42;;;;;;;;;;;;;;;;;;5015814;28;825;-60
2021/03/01 09:06:11;;;;;;;;;;;;;;;;;;5014530;28;798;-59
2021/03/01 09:08:37;;;;;;;;;;;;;;;;;;5014416;28;1341;-59
2021/03/01 09:11:12;;;;;;;;;;;;;;;;;;5014714;28;802;-60
2021/03/01 09:13:38;;;;;;;;;;;;;;;;;;5015869;28;1019;-59
2021/03/01 09:16:05;;;;;;;;;;;;;;;;;;5083525;22;3835;-60
2021/03/01 09:18:31;;;;;;;;;;;;;;;;;;4987728;28;1938;-58
2021/03/01 09:20:57;;;;;;;;;;;;;;;;;;4975317;28;881;-57
2021/03/01 09:23:33;;;;;;;;;;;;;;;;;;4975142;28;739;-55
2021/03/01 09:25:59;;;;;;;;;;;;;;;;;;4977005;28;1013;-58
2021/03/01 09:28:43;;;;;;;;;;;;;;;;;;4975392;28;1333;-59
2021/03/01 09:31:11;;;;;;;;;;;;;;;;;;4975372;28;539;-59
2021/03/01 09:33:38;;;;;;;;;;;;;;;;;;4975219;28;1054;-57
2021/03/01 09:36:07;;;;;;;;;;;;;;;;;;4973875;28;811;-59
2021/03/01 09:38:33;;;;;;;;;;;;;;;;;;4974820;28;1981;-59
2021/03/01 09:41:00;;;;;;;;;;;;;;;;;;4974909;28;812;-59
2021/03/01 09:43:26;;;;;;;;;;;;;;;;;;4974986;28;787;-59
2021/03/01 09:45:52;;;;;;;;;;;;;;;;;;4974807;28;1079;-58
2021/03/01 09:48:18;;;;;;;;;;;;;;;;;;4974689;28;1258;-58
2021/03/01 09:50:44;;;;;;;;;;;;;;;;;;4974883;28;821;-57
2021/03/01 09:53:10;;;;;;;;;;;;;;;;;;4974599;28;943;-59
2021/03/01 09:55:36;;;;;;;;;;;;;;;;;;4974846;28;961;-59
2021/03/01 09:58:19;;;;;;;;;;;;;;;;;;4974440;28;1953;-56
2021/03/01 10:00:45;;;;;;;;;;;;;;;;;;4974521;28;566;-59
2021/03/01 10:03:11;;;;;;;;;;;;;;;;;;4974401;28;823;-59
2021/03/01 10:05:38;;;;;;;;;;;;;;;;;;4974464;28;1008;-58
2021/03/01 10:08:05;;;;;;;;;;;;;;;;;;4974164;28;1282;-59
2021/03/01 10:10:35;;;;;;;;;;;;;;;;;;4974454;28;830;-59
2021/03/01 10:13:01;;;;;;;;;;;;;;;;;;4974761;28;995;-58
2021/03/01 10:15:28;;;;;;;;;;;;;;;;;;4974159;28;815;-58
2021/03/01 10:18:04;;;;;;;;;;;;;;;;;;4974439;28;1879;-56
2021/03/01 10:20:29;;;;;;;;;;;;;;;;;;4974886;28;790;-58
2021/03/01 10:23:05;;;;;;;;;;;;;;;;;;4974262;28;809;-59
2021/03/01 10:25:32;;;;;;;;;;;;;;;;;;4975770;28;937;-57
2021/03/01 10:27:57;;;;;;;;;;;;;;;;;;4973825;28;1281;-58
2021/03/01 10:30:23;;;;;;;;;;;;;;;;;;4974628;28;810;-59
2021/03/01 10:32:49;;;;;;;;;;;;;;;;;;4974063;28;899;-58
2021/03/01 10:35:18;;;;;;;;;;;;;;;;;;4974597;28;812;-59
2021/03/01 10:38:02;;;;;;;;;;;;;;;;;;4973948;28;1895;-57
2021/03/01 10:40:29;;;;;;;;;;;;;;;;;;4974231;28;789;-55
2021/03/01 10:42:55;;;;;;;;;;;;;;;;;;4975377;28;867;-58
2021/03/01 10:45:21;;;;;;;;;;;;;;;;;;4973877;28;853;-60
2021/03/01 10:47:58;;;;;;;;;;;;;;;;;;4973622;28;1270;-62
2021/03/01 10:50:24;;;;;;;;;;;;;;;;;;4974026;28;491;-64
2021/03/01 10:52:50;;;;;;;;;;;;;;;;;;4973750;28;867;-63
2021/03/01 10:55:16;;;;;;;;;;;;;;;;;;4973973;28;942;-61
2021/03/01 10:57:41;;;;;;;;;;;;;;;;;;4973504;28;1899;-61
2021/03/01 11:00:07;;;;;;;;;;;;;;;;;;4973558;28;901;-63
2021/03/01 11:02:33;;;;;;;;;;;;;;;;;;4973859;28;880;-62
2021/03/01 11:05:00;;;;;;;;;;;;;;;;;;4973501;28;801;-62
2021/03/01 11:07:27;;;;;;;;;;;;;;;;;;4973305;28;825;-60
2021/03/01 11:09:53;;;;;;;;;;;;;;;;;;4974627;28;1337;-63
2021/03/01 11:12:19;;;;;;;;;;;;;;;;;;4973755;28;850;-59
2021/03/01 11:14:44;;;;;;;;;;;;;;;;;;4973787;28;885;-60
2021/03/01 11:17:11;;;;;;;;;;;;;;;;;;4973201;28;950;-62
2021/03/01 11:19:37;;;;;;;;;;;;;;;;;;4973574;28;1890;-61
2021/03/01 11:22:03;;;;;;;;;;;;;;;;;;4973223;28;827;-63
2021/03/01 11:24:29;;;;;;;;;;;;;;;;;;4973419;28;920;-62
2021/03/01 11:26:54;;;;;;;;;;;;;;;;;;4973234;28;900;-63
2021/03/01 11:29:22;;;;;;;;;;;;;;;;;;4972984;28;1267;-64
2021/03/01 11:31:48;;;;;;;;;;;;;;;;;;4973246;28;731;-61
2021/03/01 11:34:13;;;;;;;;;;;;;;;;;;4973281;28;894;-62
2021/03/01 11:36:39;;;;;;;;;;;;;;;;;;4973282;28;872;-60
2021/03/01 11:39:05;;;;;;;;;;;;;;;;;;4972994;28;1899;-62
2021/03/01 11:41:31;;;;;;;;;;;;;;;;;;4973036;28;838;-61
2021/03/01 11:43:57;;;;;;;;;;;;;;;;;;4973002;28;878;-60
2021/03/01 11:46:22;;;;;;;;;;;;;;;;;;4973249;28;912;-62
2021/03/01 11:48:48;;;;;;;;;;;;;;;;;;4972638;28;1267;-62
2021/03/01 11:51:14;;;;;;;;;;;;;;;;;;4972944;28;850;-62
2021/03/01 11:53:41;;;;;;;;;;;;;;;;;;4972846;28;821;-62
2021/03/01 11:56:07;;;;;;;;;;;;;;;;;;4972805;28;962;-62
2021/03/01 11:58:33;;;;;;;;;;;;;;;;;;4971763;28;1898;-63
2021/03/01 12:00:59;;;;;;;;;;;;;;;;;;4973316;28;803;-63
2021/03/01 12:03:25;;;;;;;;;;;;;;;;;;4972958;28;783;-62
2021/03/01 12:05:50;;;;;;;;;;;;;;;;;;4972685;28;819;-63
2021/03/01 12:08:16;;;;;;;;;;;;;;;;;;4972402;28;1313;-62
2021/03/01 12:10:42;;;;;;;;;;;;;;;;;;4972778;28;891;-62
2021/03/01 12:13:07;;;;;;;;;;;;;;;;;;4972713;28;811;-63
2021/03/01 12:15:33;;;;;;;;;;;;;;;;;;4972679;28;888;-62
2021/03/01 12:17:59;;;;;;;;;;;;;;;;;;4972282;28;1961;-63
2021/03/01 12:20:24;;;;;;;;;;;;;;;;;;4972453;28;884;-61
2021/03/01 12:22:50;;;;;;;;;;;;;;;;;;4972586;28;1032;-63
2021/03/01 12:25:16;;;;;;;;;;;;;;;;;;4972637;28;895;-62
2021/03/01 12:27:41;;;;;;;;;;;;;;;;;;4972867;28;828;-62
2021/03/01 12:30:08;;;;;;;;;;;;;;;;;;4972504;28;862;-61
2021/03/01 12:32:34;;;;;;;;;;;;;;;;;;4972470;28;672;-67
2021/03/01 12:35:01;;;;;;;;;;;;;;;;;;4972354;28;794;-62
2021/03/01 12:37:27;;;;;;;;;;;;;;;;;;4970836;28;817;-61
2021/03/01 12:39:52;;;;;;;;;;;;;;;;;;4972544;28;1953;-60
2021/03/01 12:42:18;;;;;;;;;;;;;;;;;;4972306;28;897;-62
2021/03/01 12:44:44;;;;;;;;;;;;;;;;;;4972000;28;835;-62
2021/03/01 12:47:10;;;;;;;;;;;;;;;;;;4972250;28;815;-62
2021/03/01 12:49:35;;;;;;;;;;;;;;;;;;4972526;28;1270;-62
2021/03/01 12:52:01;;;;;;;;;;;;;;;;;;4972893;28;815;-64
2021/03/01 12:54:27;;;;;;;;;;;;;;;;;;4972332;28;811;-62
2021/03/01 12:56:53;;;;;;;;;;;;;;;;;;4972279;28;892;-62
2021/03/01 12:59:18;;;;;;;;;;;;;;;;;;4973110;28;1947;-62
2021/03/01 13:01:44;;;;;;;;;;;;;;;;;;4972595;28;961;-60
2021/03/01 13:04:10;;;;;;;;;;;;;;;;;;4972079;28;835;-63
2021/03/01 13:06:35;;;;;;;;;;;;;;;;;;4971976;28;1014;-63
2021/03/01 13:09:01;;;;;;;;;;;;;;;;;;4972083;28;1330;-63
2021/03/01 13:11:27;;;;;;;;;;;;;;;;;;4974267;28;819;-63
2021/03/01 13:13:53;;;;;;;;;;;;;;;;;;4975395;28;806;-62
2021/03/01 13:16:19;;;;;;;;;;;;;;;;;;4975317;28;844;-62
2021/03/01 13:18:44;;;;;;;;;;;;;;;;;;4974873;28;2032;-62
2021/03/01 13:21:10;;;;;;;;;;;;;;;;;;4975174;28;873;-62
2021/03/01 13:23:36;;;;;;;;;;;;;;;;;;4975068;28;795;-61
2021/03/01 13:26:02;;;;;;;;;;;;;;;;;;4975339;28;916;-62
2021/03/01 13:28:28;;;;;;;;;;;;;;;;;;4974819;28;1338;-64
2021/03/01 13:30:53;;;;;;;;;;;;;;;;;;4975172;28;783;-57
2021/03/01 13:33:22;;;;;;;;;;;;;;;;;;4975189;28;899;-64
2021/03/01 13:35:48;;;;;;;;;;;;;;;;;;4975448;28;791;-62
2021/03/01 13:38:14;;;;;;;;;;;;;;;;;;4974860;28;1890;-63
2021/03/01 13:40:40;;;;;;;;;;;;;;;;;;4975113;28;819;-63
2021/03/01 13:43:05;;;;;;;;;;;;;;;;;;4974900;28;873;-63
2021/03/01 13:45:31;;;;;;;;;;;;;;;;;;4974921;28;888;-63
2021/03/01 13:47:57;;;;;;;;;;;;;;;;;;4974138;28;1392;-60
2021/03/01 13:50:23;;;;;;;;;;;;;;;;;;4975212;28;794;-60
2021/03/01 13:52:50;;;;;;;;;;;;;;;;;;4974709;28;887;-61
2021/03/01 13:55:16;;;;;;;;;;;;;;;;;;4974759;28;807;-60
2021/03/01 13:57:42;;;;;;;;;;;;;;;;;;4974460;28;977;-59
2021/03/01 14:00:08;;;;;;;;;;;;;;;;;;4974432;28;1959;-59
2021/03/01 14:02:34;;;;;;;;;;;;;;;;;;4974674;28;929;-58
2021/03/01 14:05:00;;;;;;;;;;;;;;;;;;4974510;28;807;-59
2021/03/01 14:07:25;;;;;;;;;;;;;;;;;;4974298;28;835;-60
2021/03/01 14:09:51;;;;;;;;;;;;;;;;;;4974391;28;1251;-60
2021/03/01 14:12:17;;;;;;;;;;;;;;;;;;4974577;28;780;-60
2021/03/01 14:14:42;;;;;;;;;;;;;;;;;;4974565;28;1011;-59
2021/03/01 14:17:08;;;;;;;;;;;;;;;;;;4975357;28;918;-60
2021/03/01 14:19:34;;;;;;;;;;;;;;;;;;4974439;28;1887;-59
2021/03/01 14:22:00;;;;;;;;;;;;;;;;;;4973963;28;846;-58
2021/03/01 14:24:25;;;;;;;;;;;;;;;;;;4974171;28;826;-59
2021/03/01 14:26:51;;;;;;;;;;;;;;;;;;4974249;28;823;-59
2021/03/01 14:29:17;;;;;;;;;;;;;;;;;;4974249;28;1345;-58
2021/03/01 14:31:43;;;;;;;;;;;;;;;;;;4973763;28;906;-61
2021/03/01 14:34:09;;;;;;;;;;;;;;;;;;4973957;28;901;-60
2021/03/01 14:36:35;;;;;;;;;;;;;;;;;;4974126;28;818;-63
2021/03/01 14:39:01;;;;;;;;;;;;;;;;;;4973932;28;1948;-59
2021/03/01 14:41:28;;;;;;;;;;;;;;;;;;4974020;28;815;-59
2021/03/01 14:43:54;;;;;;;;;;;;;;;;;;4975337;28;918;-58
2021/03/01 14:46:20;;;;;;;;;;;;;;;;;;4974882;28;942;-58
2021/03/01 14:48:46;;;;;;;;;;;;;;;;;;4973524;28;1250;-57
2021/03/01 14:51:12;;;;;;;;;;;;;;;;;;4974198;28;807;-61
2021/03/01 14:53:37;;;;;;;;;;;;;;;;;;4973645;28;822;-60
2021/03/01 14:56:03;;;;;;;;;;;;;;;;;;4973853;28;893;-59
2021/03/01 14:58:29;;;;;;;;;;;;;;;;;;4973370;28;1887;-58
2021/03/01 15:00:57;;;;;;;;;;;;;;;;;;4973212;28;875;-58
2021/03/01 15:03:22;;;;;;;;;;;;;;;;;;4974835;28;902;-59
2021/03/01 15:05:49;;;;;;;;;;;;;;;;;;4973866;28;815;-59
2021/03/01 15:08:15;;;;;;;;;;;;;;;;;;4973334;28;1267;-58
2021/03/01 15:10:41;;;;;;;;;;;;;;;;;;4973760;28;979;-56
2021/03/01 15:13:07;;;;;;;;;;;;;;;;;;4973687;28;864;-62
2021/03/01 15:15:32;;;;;;;;;;;;;;;;;;4973570;28;1011;-60
2021/03/01 15:17:58;;;;;;;;;;;;;;;;;;4973593;28;1362;-59
2021/03/01 15:20:24;;;;;;;;;;;;;;;;;;4973364;28;1964;-59
2021/03/01 15:22:50;;;;;;;;;;;;;;;;;;4973580;28;823;-59
2021/03/01 15:25:16;;;;;;;;;;;;;;;;;;4973383;28;787;-60
2021/03/01 15:27:44;;;;;;;;;;;;;;;;;;4973160;28;877;-60
2021/03/01 15:30:10;;;;;;;;;;;;;;;;;;4974476;28;894;-62
2021/03/01 15:32:36;;;;;;;;;;;;;;;;;;4973263;28;688;-60
2021/03/01 15:35:02;;;;;;;;;;;;;;;;;;4973272;28;815;-60
2021/03/01 15:37:27;;;;;;;;;;;;;;;;;;4972921;28;679;-60
2021/03/01 15:39:53;;;;;;;;;;;;;;;;;;4973655;28;1886;-59
2021/03/01 15:42:19;;;;;;;;;;;;;;;;;;4973016;28;818;-60
2021/03/01 15:44:44;;;;;;;;;;;;;;;;;;4972964;28;761;-60
2021/03/01 15:47:11;;;;;;;;;;;;;;;;;;4972913;28;819;-57
2021/03/01 15:49:37;;;;;;;;;;;;;;;;;;4973231;28;1259;-59
2021/03/01 15:52:03;;;;;;;;;;;;;;;;;;4973174;28;807;-57
2021/03/01 15:54:28;;;;;;;;;;;;;;;;;;4972949;28;797;-58
2021/03/01 15:56:54;;;;;;;;;;;;;;;;;;4973079;28;831;-59
2021/03/01 15:59:20;;;;;;;;;;;;;;;;;;4972536;28;1886;-58
2021/03/01 16:01:45;;;;;;;;;;;;;;;;;;4972806;28;809;-59
2021/03/01 16:04:11;;;;;;;;;;;;;;;;;;4973089;28;795;-58
2021/03/01 16:06:37;;;;;;;;;;;;;;;;;;4973127;28;827;-56
2021/03/01 16:09:02;;;;;;;;;;;;;;;;;;4972712;28;1247;-53
2021/03/01 16:11:28;;;;;;;;;;;;;;;;;;4972679;28;811;-60
2021/03/01 16:13:56;;;;;;;;;;;;;;;;;;4972716;28;834;-60
2021/03/01 16:16:22;;;;;;;;;;;;;;;;;;4972714;28;894;-58
2021/03/01 16:18:47;;;;;;;;;;;;;;;;;;4972360;28;1899;-58
2021/03/01 16:21:13;;;;;;;;;;;;;;;;;;4972608;28;842;-60
2021/03/01 16:23:39;;;;;;;;;;;;;;;;;;4973158;28;803;-60
2021/03/01 16:26:04;;;;;;;;;;;;;;;;;;4972793;28;1035;-60
2021/03/01 16:28:30;;;;;;;;;;;;;;;;;;4972867;28;1251;-60
2021/03/01 16:30:56;;;;;;;;;;;;;;;;;;4972803;28;1002;-59
2021/03/01 16:33:22;;;;;;;;;;;;;;;;;;4972225;28;1076;-59
2021/03/01 16:35:49;;;;;;;;;;;;;;;;;;4974211;28;902;-59
2021/03/01 16:38:15;;;;;;;;;;;;;;;;;;4973442;28;1302;-59
2021/03/01 16:40:41;;;;;;;;;;;;;;;;;;4972347;28;1886;-59
2021/03/01 16:43:09;;;;;;;;;;;;;;;;;;4972384;28;886;-57
2021/03/01 16:45:35;;;;;;;;;;;;;;;;;;4974530;28;871;-59
2021/03/01 16:48:01;;;;;;;;;;;;;;;;;;4975423;28;1263;-60
2021/03/01 16:50:27;;;;;;;;;;;;;;;;;;4977038;28;1094;-59
2021/03/01 16:52:53;;;;;;;;;;;;;;;;;;4975774;28;826;-59
2021/03/01 16:55:19;;;;;;;;;;;;;;;;;;4975490;28;813;-62
2021/03/01 16:57:50;;;;;;;;;;;;;;;;;;4975786;28;1419;-59
2021/03/01 17:00:17;;;;;;;;;;;;;;;;;;4976026;28;1953;-60
2021/03/01 17:02:43;;;;;;;;;;;;;;;;;;4976814;28;918;-59
2021/03/01 17:05:09;;;;;;;;;;;;;;;;;;4975638;28;822;-59
2021/03/01 17:07:36;;;;;;;;;;;;;;;;;;4975429;28;791;-59
2021/03/01 17:10:04;;;;;;;;;;;;;;;;;;4975296;28;1429;-57
2021/03/01 17:12:50;;;;;;;;;;;;;;;;;;4975718;28;806;-58
2021/03/01 17:15:18;;;;;;;;;;;;;;;;;;4974999;28;1716;-58